sensor_id;sensor_type;location;lat;lon;timestamp;pressure;altitude;pressure_sealevel;temperature;humidity
11329;BME280;5719;42.714;23.732;2023-04-15T00:01:50;93675.91;;;5.64;81.38
11329;BME280;5719;42.714;23.732;2023-04-15T00:04:17;93676.28;;;5.58;80.96
11329;BME280;5719;42.714;23.732;2023-04-15T00:06:49;93685.78;;;5.31;81.70
11329;BME280;5719;42.714;23.732;2023-04-15T00:09:19;93683.22;;;5.31;82.08
11329;BME280;5719;42.714;23.732;2023-04-15T00:11:46;93673.19;;;5.28;82.37
11329;BME280;5719;42.714;23.732;2023-04-15T00:14:12;93693.81;;;5.39;82.58
11329;BME280;5719;42.714;23.732;2023-04-15T00:16:40;93679.53;;;5.35;82.48
11329;BME280;5719;42.714;23.732;2023-04-15T00:19:07;93691.75;;;5.44;82.10
11329;BME280;5719;42.714;23.732;2023-04-15T00:21:34;93684.19;;;5.42;81.44
11329;BME280;5719;42.714;23.732;2023-04-15T00:24:00;93685.38;;;5.37;81.54
11329;BME280;5719;42.714;23.732;2023-04-15T00:26:29;93683.03;;;5.34;81.89
11329;BME280;5719;42.714;23.732;2023-04-15T00:28:56;93683.72;;;5.23;82.82
11329;BME280;5719;42.714;23.732;2023-04-15T00:31:23;93685.53;;;5.21;82.45
11329;BME280;5719;42.714;23.732;2023-04-15T00:33:50;93691.28;;;5.25;82.70
11329;BME280;5719;42.714;23.732;2023-04-15T00:36:17;93686.47;;;5.20;82.55
11329;BME280;5719;42.714;23.732;2023-04-15T00:38:44;93688.22;;;5.20;82.51
11329;BME280;5719;42.714;23.732;2023-04-15T00:41:11;93689.09;;;5.06;82.81
11329;BME280;5719;42.714;23.732;2023-04-15T00:43:39;93689.13;;;4.92;83.92
11329;BME280;5719;42.714;23.732;2023-04-15T00:46:06;93701.88;;;4.10;89.14
11329;BME280;5719;42.714;23.732;2023-04-15T00:48:35;93690.34;;;4.17;88.90
11329;BME280;5719;42.714;23.732;2023-04-15T00:51:03;93701.13;;;4.36;87.84
11329;BME280;5719;42.714;23.732;2023-04-15T00:53:31;93708.06;;;4.34;87.60
11329;BME280;5719;42.714;23.732;2023-04-15T00:55:58;93695.72;;;4.41;87.34
11329;BME280;5719;42.714;23.732;2023-04-15T00:58:25;93701.94;;;4.51;87.43
11329;BME280;5719;42.714;23.732;2023-04-15T01:00:54;93709.03;;;4.60;87.39
11329;BME280;5719;42.714;23.732;2023-04-15T01:03:21;93705.28;;;4.66;87.46
11329;BME280;5719;42.714;23.732;2023-04-15T01:05:48;93705.47;;;4.63;87.47
11329;BME280;5719;42.714;23.732;2023-04-15T01:08:17;93725.25;;;4.47;87.16
11329;BME280;5719;42.714;23.732;2023-04-15T01:10:44;93725.69;;;4.39;87.31
11329;BME280;5719;42.714;23.732;2023-04-15T01:13:11;93725.88;;;4.50;87.08
11329;BME280;5719;42.714;23.732;2023-04-15T01:15:38;93717.63;;;4.59;86.73
11329;BME280;5719;42.714;23.732;2023-04-15T01:18:06;93727.31;;;4.68;86.96
11329;BME280;5719;42.714;23.732;2023-04-15T01:20:34;93730.31;;;4.75;86.45
11329;BME280;5719;42.714;23.732;2023-04-15T01:23:01;93715.88;;;4.74;86.62
11329;BME280;5719;42.714;23.732;2023-04-15T01:25:32;93721.06;;;4.86;86.36
11329;BME280;5719;42.714;23.732;2023-04-15T01:27:59;93715.84;;;4.88;86.64
11329;BME280;5719;42.714;23.732;2023-04-15T01:30:26;93717.41;;;4.90;86.04
11329;BME280;5719;42.714;23.732;2023-04-15T01:32:53;93704.84;;;4.73;86.05
11329;BME280;5719;42.714;23.732;2023-04-15T01:35:20;93711.97;;;4.54;86.80
11329;BME280;5719;42.714;23.732;2023-04-15T01:37:48;93703.22;;;4.44;86.81
11329;BME280;5719;42.714;23.732;2023-04-15T01:40:15;93702.88;;;4.22;87.62
11329;BME280;5719;42.714;23.732;2023-04-15T01:42:44;93698.47;;;3.95;88.05
11329;BME280;5719;42.714;23.732;2023-04-15T01:45:11;93703.28;;;3.72;90.48
11329;BME280;5719;42.714;23.732;2023-04-15T01:47:38;93713.91;;;3.94;90.94
11329;BME280;5719;42.714;23.732;2023-04-15T01:50:06;93703.50;;;3.97;90.49
11329;BME280;5719;42.714;23.732;2023-04-15T01:52:33;93709.06;;;3.89;90.25
11329;BME280;5719;42.714;23.732;2023-04-15T01:55:00;93703.50;;;3.97;90.51
11329;BME280;5719;42.714;23.732;2023-04-15T01:57:26;93716.56;;;4.07;89.84
11329;BME280;5719;42.714;23.732;2023-04-15T01:59:55;93728.38;;;3.79;90.02
11329;BME280;5719;42.714;23.732;2023-04-15T02:02:22;93721.28;;;3.84;90.85
11329;BME280;5719;42.714;23.732;2023-04-15T02:04:48;93732.81;;;3.91;89.69
11329;BME280;5719;42.714;23.732;2023-04-15T02:07:15;93735.25;;;3.19;94.83
11329;BME280;5719;42.714;23.732;2023-04-15T02:09:43;93742.63;;;3.39;94.98
11329;BME280;5719;42.714;23.732;2023-04-15T02:12:10;93737.84;;;3.49;94.88
11329;BME280;5719;42.714;23.732;2023-04-15T02:14:38;93728.09;;;3.70;93.60
11329;BME280;5719;42.714;23.732;2023-04-15T02:17:06;93735.53;;;3.88;93.68
11329;BME280;5719;42.714;23.732;2023-04-15T02:19:33;93734.09;;;3.55;94.59
11329;BME280;5719;42.714;23.732;2023-04-15T02:22:00;93725.84;;;3.79;93.97
11329;BME280;5719;42.714;23.732;2023-04-15T02:24:28;93722.94;;;3.85;93.65
11329;BME280;5719;42.714;23.732;2023-04-15T02:26:56;93731.03;;;3.64;95.62
11329;BME280;5719;42.714;23.732;2023-04-15T02:29:22;93716.69;;;3.75;94.42
11329;BME280;5719;42.714;23.732;2023-04-15T02:31:49;93721.50;;;3.95;92.72
11329;BME280;5719;42.714;23.732;2023-04-15T02:34:18;93715.66;;;4.08;92.08
11329;BME280;5719;42.714;23.732;2023-04-15T02:36:45;93718.50;;;4.17;91.20
11329;BME280;5719;42.714;23.732;2023-04-15T02:39:14;93719.31;;;4.18;90.69
11329;BME280;5719;42.714;23.732;2023-04-15T02:41:43;93709.34;;;4.13;89.51
11329;BME280;5719;42.714;23.732;2023-04-15T02:44:12;93716.38;;;4.24;89.10
11329;BME280;5719;42.714;23.732;2023-04-15T02:46:39;93716.94;;;4.29;88.63
11329;BME280;5719;42.714;23.732;2023-04-15T02:49:06;93709.53;;;4.24;88.29
11329;BME280;5719;42.714;23.732;2023-04-15T02:51:35;93707.44;;;4.17;88.85
11329;BME280;5719;42.714;23.732;2023-04-15T02:54:02;93706.88;;;4.12;89.76
11329;BME280;5719;42.714;23.732;2023-04-15T02:56:29;93698.22;;;3.86;91.10
11329;BME280;5719;42.714;23.732;2023-04-15T02:58:56;93694.78;;;3.27;100.00
11329;BME280;5719;42.714;23.732;2023-04-15T03:01:23;93698.72;;;3.33;100.00
11329;BME280;5719;42.714;23.732;2023-04-15T03:03:50;93708.56;;;3.39;100.00
11329;BME280;5719;42.714;23.732;2023-04-15T03:06:17;93712.72;;;3.41;100.00
11329;BME280;5719;42.714;23.732;2023-04-15T03:08:45;93707.09;;;3.65;100.00
11329;BME280;5719;42.714;23.732;2023-04-15T03:11:14;93706.03;;;3.83;100.00
11329;BME280;5719;42.714;23.732;2023-04-15T03:13:41;93705.69;;;3.89;98.47
11329;BME280;5719;42.714;23.732;2023-04-15T03:16:08;93704.75;;;3.90;97.79
11329;BME280;5719;42.714;23.732;2023-04-15T03:18:36;93701.84;;;3.82;97.48
11329;BME280;5719;42.714;23.732;2023-04-15T03:21:03;93705.59;;;3.90;97.29
11329;BME280;5719;42.714;23.732;2023-04-15T03:23:30;93701.28;;;3.91;95.75
11329;BME280;5719;42.714;23.732;2023-04-15T03:26:00;93709.16;;;4.02;94.80
11329;BME280;5719;42.714;23.732;2023-04-15T03:28:27;93705.44;;;4.08;94.18
11329;BME280;5719;42.714;23.732;2023-04-15T03:30:55;93699.94;;;4.14;92.96
11329;BME280;5719;42.714;23.732;2023-04-15T03:33:22;93708.44;;;4.14;92.94
11329;BME280;5719;42.714;23.732;2023-04-15T03:35:49;93704.16;;;4.15;92.17
11329;BME280;5719;42.714;23.732;2023-04-15T03:38:16;93709.28;;;4.15;91.79
11329;BME280;5719;42.714;23.732;2023-04-15T03:40:45;93707.63;;;4.14;91.23
11329;BME280;5719;42.714;23.732;2023-04-15T03:43:14;93714.25;;;3.88;92.48
11329;BME280;5719;42.714;23.732;2023-04-15T03:45:41;93729.41;;;3.91;92.09
11329;BME280;5719;42.714;23.732;2023-04-15T03:48:08;93725.06;;;3.93;92.89
11329;BME280;5719;42.714;23.732;2023-04-15T03:50:35;93725.13;;;3.91;93.63
11329;BME280;5719;42.714;23.732;2023-04-15T03:53:02;93714.34;;;3.86;94.29
11329;BME280;5719;42.714;23.732;2023-04-15T03:55:29;93724.09;;;3.80;95.99
11329;BME280;5719;42.714;23.732;2023-04-15T03:57:56;93732.50;;;3.38;99.47
11329;BME280;5719;42.714;23.732;2023-04-15T04:00:24;93729.88;;;3.54;100.00
11329;BME280;5719;42.714;23.732;2023-04-15T04:02:51;93738.41;;;3.68;99.62
11329;BME280;5719;42.714;23.732;2023-04-15T04:05:18;93747.13;;;3.80;98.10
11329;BME280;5719;42.714;23.732;2023-04-15T04:07:45;93750.69;;;3.91;96.86
11329;BME280;5719;42.714;23.732;2023-04-15T04:10:12;93747.69;;;3.99;96.63
11329;BME280;5719;42.714;23.732;2023-04-15T04:12:38;93739.78;;;4.04;96.52
11329;BME280;5719;42.714;23.732;2023-04-15T04:15:06;93736.66;;;4.13;96.50
11329;BME280;5719;42.714;23.732;2023-04-15T04:17:35;93751.09;;;4.00;96.12
11329;BME280;5719;42.714;23.732;2023-04-15T04:20:02;93759.47;;;3.87;96.10
11329;BME280;5719;42.714;23.732;2023-04-15T04:22:30;93766.94;;;3.90;96.49
11329;BME280;5719;42.714;23.732;2023-04-15T04:24:57;93771.78;;;3.81;96.34
11329;BME280;5719;42.714;23.732;2023-04-15T04:27:24;93774.53;;;3.92;96.25
11329;BME280;5719;42.714;23.732;2023-04-15T04:29:51;93785.00;;;3.73;97.67
11329;BME280;5719;42.714;23.732;2023-04-15T04:32:18;93792.50;;;3.90;97.74
11329;BME280;5719;42.714;23.732;2023-04-15T04:34:46;93790.69;;;3.78;97.55
11329;BME280;5719;42.714;23.732;2023-04-15T04:37:13;93789.09;;;3.76;99.31
11329;BME280;5719;42.714;23.732;2023-04-15T04:39:40;93792.41;;;3.78;100.00
11329;BME280;5719;42.714;23.732;2023-04-15T04:42:07;93786.91;;;4.14;99.80
11329;BME280;5719;42.714;23.732;2023-04-15T04:44:34;93792.22;;;4.53;99.33
11329;BME280;5719;42.714;23.732;2023-04-15T04:47:01;93797.81;;;4.88;98.22
11329;BME280;5719;42.714;23.732;2023-04-15T04:49:28;93793.25;;;5.20;96.97
11329;BME280;5719;42.714;23.732;2023-04-15T04:51:57;93780.75;;;5.42;94.05
11329;BME280;5719;42.714;23.732;2023-04-15T04:54:24;93789.78;;;5.74;93.08
11329;BME280;5719;42.714;23.732;2023-04-15T04:56:52;93794.56;;;6.06;91.43
11329;BME280;5719;42.714;23.732;2023-04-15T04:59:19;93800.94;;;6.00;90.77
11329;BME280;5719;42.714;23.732;2023-04-15T05:01:46;93786.28;;;5.75;91.19
11329;BME280;5719;42.714;23.732;2023-04-15T05:04:13;93813.28;;;6.08;90.31
11329;BME280;5719;42.714;23.732;2023-04-15T05:06:40;93809.91;;;6.45;88.60
11329;BME280;5719;42.714;23.732;2023-04-15T05:09:08;93824.00;;;6.77;85.90
11329;BME280;5719;42.714;23.732;2023-04-15T05:11:35;93823.53;;;7.09;83.83
11329;BME280;5719;42.714;23.732;2023-04-15T05:14:02;93824.47;;;7.44;82.52
11329;BME280;5719;42.714;23.732;2023-04-15T05:16:29;93824.44;;;7.80;80.39
11329;BME280;5719;42.714;23.732;2023-04-15T05:18:56;93823.63;;;8.04;78.52
11329;BME280;5719;42.714;23.732;2023-04-15T05:21:23;93826.47;;;8.12;77.28
11329;BME280;5719;42.714;23.732;2023-04-15T05:23:50;93832.34;;;8.25;76.80
11329;BME280;5719;42.714;23.732;2023-04-15T05:26:19;93830.13;;;8.55;76.47
11329;BME280;5719;42.714;23.732;2023-04-15T05:28:46;93834.03;;;8.94;75.28
11329;BME280;5719;42.714;23.732;2023-04-15T05:31:14;93829.47;;;9.31;74.82
11329;BME280;5719;42.714;23.732;2023-04-15T05:33:42;93830.25;;;9.65;73.64
11329;BME280;5719;42.714;23.732;2023-04-15T05:36:09;93839.00;;;9.73;72.85
11329;BME280;5719;42.714;23.732;2023-04-15T05:38:36;93845.78;;;9.97;72.50
11329;BME280;5719;42.714;23.732;2023-04-15T05:41:02;93818.00;;;10.10;71.82
11329;BME280;5719;42.714;23.732;2023-04-15T05:43:31;93844.00;;;10.61;71.84
11329;BME280;5719;42.714;23.732;2023-04-15T05:45:58;93854.78;;;10.87;70.64
11329;BME280;5719;42.714;23.732;2023-04-15T05:48:25;93841.88;;;11.17;71.09
11329;BME280;5719;42.714;23.732;2023-04-15T05:50:52;93841.59;;;11.50;69.04
11329;BME280;5719;42.714;23.732;2023-04-15T05:53:19;93843.56;;;11.67;66.83
11329;BME280;5719;42.714;23.732;2023-04-15T05:55:46;93833.16;;;11.98;66.88
11329;BME280;5719;42.714;23.732;2023-04-15T05:58:13;93842.59;;;12.37;65.98
11329;BME280;5719;42.714;23.732;2023-04-15T06:00:41;93849.97;;;12.70;63.64
11329;BME280;5719;42.714;23.732;2023-04-15T06:03:09;93841.78;;;12.56;64.08
11329;BME280;5719;42.714;23.732;2023-04-15T06:05:36;93834.53;;;12.21;63.64
11329;BME280;5719;42.714;23.732;2023-04-15T06:08:03;93841.50;;;12.40;65.39
11329;BME280;5719;42.714;23.732;2023-04-15T06:10:30;93843.56;;;12.55;63.53
11329;BME280;5719;42.714;23.732;2023-04-15T06:13:01;93847.09;;;12.64;64.18
11329;BME280;5719;42.714;23.732;2023-04-15T06:15:28;93846.69;;;12.59;65.29
11329;BME280;5719;42.714;23.732;2023-04-15T06:17:56;93845.06;;;12.67;65.57
11329;BME280;5719;42.714;23.732;2023-04-15T06:20:23;93842.69;;;12.84;65.15
11329;BME280;5719;42.714;23.732;2023-04-15T06:22:50;93835.88;;;12.83;65.03
11329;BME280;5719;42.714;23.732;2023-04-15T06:25:17;93842.53;;;12.95;62.33
11329;BME280;5719;42.714;23.732;2023-04-15T06:27:44;93854.16;;;13.10;61.72
11329;BME280;5719;42.714;23.732;2023-04-15T06:30:11;93861.78;;;13.02;62.38
11329;BME280;5719;42.714;23.732;2023-04-15T06:32:38;93861.53;;;12.95;63.12
11329;BME280;5719;42.714;23.732;2023-04-15T06:35:07;93869.97;;;13.07;63.32
11329;BME280;5719;42.714;23.732;2023-04-15T06:37:34;93875.44;;;12.94;64.59
11329;BME280;5719;42.714;23.732;2023-04-15T06:40:01;93872.03;;;12.94;64.41
11329;BME280;5719;42.714;23.732;2023-04-15T06:42:29;93868.16;;;13.36;63.53
11329;BME280;5719;42.714;23.732;2023-04-15T06:44:56;93869.34;;;13.79;63.22
11329;BME280;5719;42.714;23.732;2023-04-15T06:47:23;93862.41;;;13.69;61.16
11329;BME280;5719;42.714;23.732;2023-04-15T06:49:50;93865.50;;;13.83;62.59
11329;BME280;5719;42.714;23.732;2023-04-15T06:52:18;93864.16;;;14.23;60.74
11329;BME280;5719;42.714;23.732;2023-04-15T06:54:46;93871.84;;;14.43;58.78
11329;BME280;5719;42.714;23.732;2023-04-15T06:57:12;93863.25;;;14.60;58.67
11329;BME280;5719;42.714;23.732;2023-04-15T06:59:39;93870.16;;;14.51;59.30
11329;BME280;5719;42.714;23.732;2023-04-15T07:02:08;93864.66;;;14.54;60.11
11329;BME280;5719;42.714;23.732;2023-04-15T07:04:37;93881.81;;;15.00;56.41
11329;BME280;5719;42.714;23.732;2023-04-15T07:07:04;93870.31;;;15.11;55.95
11329;BME280;5719;42.714;23.732;2023-04-15T07:09:34;93871.78;;;15.13;54.52
11329;BME280;5719;42.714;23.732;2023-04-15T07:12:01;93880.50;;;15.22;53.31
11329;BME280;5719;42.714;23.732;2023-04-15T07:14:28;93878.16;;;15.37;50.16
11329;BME280;5719;42.714;23.732;2023-04-15T07:16:55;93879.81;;;15.72;51.08
11329;BME280;5719;42.714;23.732;2023-04-15T07:19:22;93877.03;;;15.99;51.62
11329;BME280;5719;42.714;23.732;2023-04-15T07:21:49;93880.50;;;16.15;50.64
11329;BME280;5719;42.714;23.732;2023-04-15T07:24:16;93872.63;;;15.40;51.71
11329;BME280;5719;42.714;23.732;2023-04-15T07:26:45;93884.47;;;15.34;52.37
11329;BME280;5719;42.714;23.732;2023-04-15T07:29:13;93889.56;;;15.61;51.94
11329;BME280;5719;42.714;23.732;2023-04-15T07:31:40;93874.47;;;15.81;48.59
11329;BME280;5719;42.714;23.732;2023-04-15T07:34:07;93882.84;;;16.35;48.36
11329;BME280;5719;42.714;23.732;2023-04-15T07:36:35;93885.31;;;16.44;46.74
11329;BME280;5719;42.714;23.732;2023-04-15T07:39:02;93878.50;;;16.59;48.43
11329;BME280;5719;42.714;23.732;2023-04-15T07:41:30;93886.28;;;16.51;47.55
11329;BME280;5719;42.714;23.732;2023-04-15T07:43:58;93883.41;;;16.87;45.98
11329;BME280;5719;42.714;23.732;2023-04-15T07:46:27;93878.13;;;16.38;49.13
11329;BME280;5719;42.714;23.732;2023-04-15T07:48:54;93886.88;;;16.95;46.85
11329;BME280;5719;42.714;23.732;2023-04-15T07:51:21;93884.03;;;17.53;47.08
11329;BME280;5719;42.714;23.732;2023-04-15T07:53:48;93879.59;;;17.78;44.14
11329;BME280;5719;42.714;23.732;2023-04-15T07:56:15;93879.81;;;17.60;45.01
11329;BME280;5719;42.714;23.732;2023-04-15T07:58:42;93886.66;;;17.78;43.53
11329;BME280;5719;42.714;23.732;2023-04-15T08:01:10;93884.06;;;18.08;44.44
11329;BME280;5719;42.714;23.732;2023-04-15T08:03:37;93889.34;;;18.39;44.73
11329;BME280;5719;42.714;23.732;2023-04-15T08:06:05;93881.06;;;18.58;44.88
11329;BME280;5719;42.714;23.732;2023-04-15T08:08:32;93890.47;;;18.06;41.09
11329;BME280;5719;42.714;23.732;2023-04-15T08:10:59;93902.19;;;18.49;40.48
11329;BME280;5719;42.714;23.732;2023-04-15T08:13:26;93903.34;;;18.54;39.47
11329;BME280;5719;42.714;23.732;2023-04-15T08:16:15;93898.34;;;17.90;40.06
11329;BME280;5719;42.714;23.732;2023-04-15T08:18:43;93905.31;;;17.58;39.51
11329;BME280;5719;42.714;23.732;2023-04-15T08:21:10;93906.94;;;17.35;40.03
11329;BME280;5719;42.714;23.732;2023-04-15T08:23:37;93895.84;;;17.33;40.18
11329;BME280;5719;42.714;23.732;2023-04-15T08:26:05;93883.78;;;17.00;38.90
11329;BME280;5719;42.714;23.732;2023-04-15T08:28:32;93906.28;;;17.25;40.36
11329;BME280;5719;42.714;23.732;2023-04-15T08:30:59;93903.53;;;17.10;40.55
11329;BME280;5719;42.714;23.732;2023-04-15T08:33:27;93901.38;;;17.38;40.16
11329;BME280;5719;42.714;23.732;2023-04-15T08:35:54;93906.47;;;17.15;40.05
11329;BME280;5719;42.714;23.732;2023-04-15T08:38:22;93910.19;;;17.13;39.00
11329;BME280;5719;42.714;23.732;2023-04-15T08:40:49;93880.66;;;17.37;40.23
11329;BME280;5719;42.714;23.732;2023-04-15T08:43:21;93903.25;;;17.93;39.24
11329;BME280;5719;42.714;23.732;2023-04-15T08:45:51;93904.34;;;17.59;38.26
11329;BME280;5719;42.714;23.732;2023-04-15T08:48:24;93899.09;;;17.27;39.68
11329;BME280;5719;42.714;23.732;2023-04-15T08:50:56;93915.44;;;17.13;39.53
11329;BME280;5719;42.714;23.732;2023-04-15T08:53:23;93910.03;;;17.31;38.80
11329;BME280;5719;42.714;23.732;2023-04-15T08:55:51;93909.69;;;17.50;37.96
11329;BME280;5719;42.714;23.732;2023-04-15T08:58:20;93909.63;;;17.90;38.45
11329;BME280;5719;42.714;23.732;2023-04-15T09:00:47;93906.41;;;18.27;37.80
11329;BME280;5719;42.714;23.732;2023-04-15T09:03:15;93896.09;;;19.10;38.20
11329;BME280;5719;42.714;23.732;2023-04-15T09:05:43;93888.75;;;19.28;36.10
11329;BME280;5719;42.714;23.732;2023-04-15T09:08:12;93899.13;;;19.44;35.94
11329;BME280;5719;42.714;23.732;2023-04-15T09:10:39;93888.75;;;18.60;35.95
11329;BME280;5719;42.714;23.732;2023-04-15T09:13:06;93888.16;;;18.73;35.99
11329;BME280;5719;42.714;23.732;2023-04-15T09:15:36;93887.56;;;19.16;34.65
11329;BME280;5719;42.714;23.732;2023-04-15T09:18:03;93876.31;;;18.85;34.83
11329;BME280;5719;42.714;23.732;2023-04-15T09:20:38;93878.81;;;18.78;34.83
11329;BME280;5719;42.714;23.732;2023-04-15T09:23:12;93872.75;;;18.55;34.70
11329;BME280;5719;42.714;23.732;2023-04-15T09:25:40;93877.41;;;18.68;36.12
11329;BME280;5719;42.714;23.732;2023-04-15T09:28:08;93868.97;;;18.80;36.26
11329;BME280;5719;42.714;23.732;2023-04-15T09:30:36;93861.50;;;19.15;35.40
11329;BME280;5719;42.714;23.732;2023-04-15T09:33:03;93864.19;;;18.84;34.99
11329;BME280;5719;42.714;23.732;2023-04-15T09:35:33;93870.16;;;19.00;34.72
11329;BME280;5719;42.714;23.732;2023-04-15T09:38:05;93865.47;;;18.88;35.42
11329;BME280;5719;42.714;23.732;2023-04-15T09:40:35;93870.38;;;18.91;36.20
11329;BME280;5719;42.714;23.732;2023-04-15T09:43:03;93868.41;;;19.16;36.26
11329;BME280;5719;42.714;23.732;2023-04-15T09:45:31;93871.78;;;19.39;36.08
11329;BME280;5719;42.714;23.732;2023-04-15T09:48:00;93879.91;;;19.52;36.09
11329;BME280;5719;42.714;23.732;2023-04-15T09:50:40;93864.91;;;18.78;34.81
11329;BME280;5719;42.714;23.732;2023-04-15T09:53:08;93866.44;;;18.33;35.89
11329;BME280;5719;42.714;23.732;2023-04-15T09:55:44;93859.88;;;18.91;36.10
11329;BME280;5719;42.714;23.732;2023-04-15T09:58:17;93863.81;;;19.84;34.45
11329;BME280;5719;42.714;23.732;2023-04-15T10:00:46;93857.13;;;20.62;34.06
11329;BME280;5719;42.714;23.732;2023-04-15T10:03:16;93870.28;;;21.04;32.35
11329;BME280;5719;42.714;23.732;2023-04-15T10:05:44;93854.09;;;21.22;32.48
11329;BME280;5719;42.714;23.732;2023-04-15T10:08:14;93855.56;;;21.52;32.10
11329;BME280;5719;42.714;23.732;2023-04-15T10:10:43;93852.47;;;21.76;32.58
11329;BME280;5719;42.714;23.732;2023-04-15T10:13:11;93846.44;;;22.17;32.85
11329;BME280;5719;42.714;23.732;2023-04-15T10:15:41;93851.38;;;22.87;31.63
11329;BME280;5719;42.714;23.732;2023-04-15T10:18:10;93845.88;;;22.21;31.15
11329;BME280;5719;42.714;23.732;2023-04-15T10:20:39;93847.53;;;21.11;33.18
11329;BME280;5719;42.714;23.732;2023-04-15T10:23:08;93840.50;;;21.46;32.02
11329;BME280;5719;42.714;23.732;2023-04-15T10:25:35;93838.69;;;21.19;32.09
11329;BME280;5719;42.714;23.732;2023-04-15T10:28:05;93827.44;;;21.52;32.63
11329;BME280;5719;42.714;23.732;2023-04-15T10:30:33;93818.66;;;21.73;33.45
11329;BME280;5719;42.714;23.732;2023-04-15T10:33:00;93817.72;;;21.87;33.07
11329;BME280;5719;42.714;23.732;2023-04-15T10:35:29;93807.72;;;21.76;31.11
11329;BME280;5719;42.714;23.732;2023-04-15T10:37:56;93803.88;;;21.79;31.70
11329;BME280;5719;42.714;23.732;2023-04-15T10:40:26;93802.38;;;21.91;31.15
11329;BME280;5719;42.714;23.732;2023-04-15T10:42:54;93816.38;;;21.98;31.53
11329;BME280;5719;42.714;23.732;2023-04-15T10:45:24;93815.22;;;22.07;31.67
11329;BME280;5719;42.714;23.732;2023-04-15T10:47:54;93813.97;;;22.03;30.79
11329;BME280;5719;42.714;23.732;2023-04-15T10:50:25;93811.41;;;22.16;31.20
11329;BME280;5719;42.714;23.732;2023-04-15T10:52:52;93806.22;;;22.42;30.08
11329;BME280;5719;42.714;23.732;2023-04-15T10:55:23;93803.19;;;22.45;31.81
11329;BME280;5719;42.714;23.732;2023-04-15T10:57:51;93801.97;;;22.41;30.84
11329;BME280;5719;42.714;23.732;2023-04-15T11:00:23;93795.84;;;22.21;31.17
11329;BME280;5719;42.714;23.732;2023-04-15T11:02:54;93798.28;;;22.29;31.37
11329;BME280;5719;42.714;23.732;2023-04-15T11:07:57;93783.16;;;22.51;31.52
11329;BME280;5719;42.714;23.732;2023-04-15T11:10:51;93795.44;;;22.24;30.97
11329;BME280;5719;42.714;23.732;2023-04-15T11:13:22;93798.47;;;21.87;30.44
11329;BME280;5719;42.714;23.732;2023-04-15T11:15:55;93810.94;;;20.95;31.43
11329;BME280;5719;42.714;23.732;2023-04-15T11:18:25;93806.94;;;20.99;31.79
11329;BME280;5719;42.714;23.732;2023-04-15T11:20:55;93792.47;;;20.61;32.03
11329;BME280;5719;42.714;23.732;2023-04-15T11:23:29;93798.44;;;20.33;32.52
11329;BME280;5719;42.714;23.732;2023-04-15T11:25:56;93808.38;;;19.73;32.77
11329;BME280;5719;42.714;23.732;2023-04-15T11:28:25;93810.78;;;20.03;32.67
11329;BME280;5719;42.714;23.732;2023-04-15T11:30:52;93806.44;;;20.11;33.07
11329;BME280;5719;42.714;23.732;2023-04-15T11:33:20;93809.13;;;20.32;32.89
11329;BME280;5719;42.714;23.732;2023-04-15T11:35:50;93796.81;;;20.32;34.25
11329;BME280;5719;42.714;23.732;2023-04-15T11:38:18;93795.66;;;20.05;34.21
11329;BME280;5719;42.714;23.732;2023-04-15T11:40:45;93798.41;;;19.83;34.58
11329;BME280;5719;42.714;23.732;2023-04-15T11:43:13;93800.41;;;19.81;33.45
11329;BME280;5719;42.714;23.732;2023-04-15T11:45:51;93798.72;;;20.09;33.93
11329;BME280;5719;42.714;23.732;2023-04-15T11:48:19;93799.88;;;20.36;33.70
11329;BME280;5719;42.714;23.732;2023-04-15T11:50:54;93799.25;;;20.19;32.47
11329;BME280;5719;42.714;23.732;2023-04-15T11:53:22;93793.94;;;20.13;33.95
11329;BME280;5719;42.714;23.732;2023-04-15T11:55:52;93800.06;;;20.20;32.88
11329;BME280;5719;42.714;23.732;2023-04-15T11:58:20;93782.88;;;20.17;32.62
11329;BME280;5719;42.714;23.732;2023-04-15T12:00:49;93786.81;;;19.92;34.08
11329;BME280;5719;42.714;23.732;2023-04-15T12:03:21;93787.22;;;19.74;33.06
11329;BME280;5719;42.714;23.732;2023-04-15T12:06:15;93783.91;;;20.01;33.92
11329;BME280;5719;42.714;23.732;2023-04-15T12:08:57;93782.56;;;19.91;33.56
11329;BME280;5719;42.714;23.732;2023-04-15T12:11:33;93783.19;;;19.93;33.71
11329;BME280;5719;42.714;23.732;2023-04-15T12:14:05;93788.00;;;19.75;33.38
11329;BME280;5719;42.714;23.732;2023-04-15T12:16:34;93792.06;;;19.33;33.27
11329;BME280;5719;42.714;23.732;2023-04-15T12:19:05;93783.78;;;19.44;33.99
11329;BME280;5719;42.714;23.732;2023-04-15T12:21:36;93783.81;;;20.10;32.92
11329;BME280;5719;42.714;23.732;2023-04-15T12:24:05;93783.63;;;19.96;32.92
11329;BME280;5719;42.714;23.732;2023-04-15T12:26:34;93789.09;;;19.66;33.46
11329;BME280;5719;42.714;23.732;2023-04-15T12:29:04;93773.34;;;19.95;33.33
11329;BME280;5719;42.714;23.732;2023-04-15T12:31:31;93794.34;;;19.80;32.77
11329;BME280;5719;42.714;23.732;2023-04-15T12:33:59;93796.59;;;19.69;33.93
11329;BME280;5719;42.714;23.732;2023-04-15T12:36:26;93792.50;;;19.37;33.60
11329;BME280;5719;42.714;23.732;2023-04-15T12:38:56;93789.56;;;19.54;33.73
11329;BME280;5719;42.714;23.732;2023-04-15T12:41:23;93788.25;;;20.09;33.00
11329;BME280;5719;42.714;23.732;2023-04-15T12:43:50;93787.09;;;19.82;32.50
11329;BME280;5719;42.714;23.732;2023-04-15T12:46:17;93784.38;;;19.90;33.07
11329;BME280;5719;42.714;23.732;2023-04-15T12:48:44;93793.53;;;19.80;33.13
11329;BME280;5719;42.714;23.732;2023-04-15T12:51:12;93789.31;;;20.00;33.23
11329;BME280;5719;42.714;23.732;2023-04-15T12:53:39;93790.25;;;20.07;33.89
11329;BME280;5719;42.714;23.732;2023-04-15T12:56:07;93792.50;;;20.10;33.46
11329;BME280;5719;42.714;23.732;2023-04-15T12:58:34;93801.22;;;19.81;34.05
11329;BME280;5719;42.714;23.732;2023-04-15T13:01:01;93795.75;;;20.12;33.09
11329;BME280;5719;42.714;23.732;2023-04-15T13:03:28;93790.41;;;20.05;32.28
11329;BME280;5719;42.714;23.732;2023-04-15T13:05:55;93798.53;;;20.61;32.48
11329;BME280;5719;42.714;23.732;2023-04-15T13:08:22;93809.66;;;21.27;31.58
11329;BME280;5719;42.714;23.732;2023-04-15T13:10:50;93800.69;;;21.83;30.52
11329;BME280;5719;42.714;23.732;2023-04-15T13:13:18;93802.41;;;22.04;29.79